createdAt,value
2018-06-09T00:01:54.426Z,67.27
2018-06-09T00:04:25.037Z,66.61
2018-06-09T00:06:55.719Z,67.27
2018-06-09T00:09:25.940Z,66.23
2018-06-09T00:11:56.793Z,65.79
2018-06-09T00:14:26.980Z,65.39
2018-06-09T00:16:58.102Z,64.86
2018-06-09T00:19:28.551Z,65.04
2018-06-09T00:21:59.313Z,66.02
2018-06-09T00:24:29.993Z,66.75
2018-06-09T00:27:00.726Z,66.83
2018-06-09T00:29:31.397Z,66.62
2018-06-09T00:32:02.237Z,67.88
2018-06-09T00:34:32.854Z,67.96
2018-06-09T00:37:03.560Z,68.02
2018-06-09T00:39:34.187Z,66.96
2018-06-09T00:42:04.924Z,66.90
2018-06-09T00:44:35.602Z,67.05
2018-06-09T00:47:06.340Z,66.68
2018-06-09T00:49:37.013Z,66.45
2018-06-09T00:52:08.164Z,66.77
2018-06-09T00:54:38.834Z,66.26
2018-06-09T00:57:09.562Z,66.45
2018-06-09T00:59:40.261Z,66.21
2018-06-09T01:02:11.027Z,66.11
2018-06-09T01:04:41.608Z,67.18
2018-06-09T01:07:12.289Z,66.69
2018-06-09T01:09:42.989Z,67.08
2018-06-09T01:12:13.677Z,66.50
2018-06-09T01:14:44.354Z,65.99
2018-06-09T01:17:15.046Z,66.77
2018-06-09T01:19:45.704Z,66.25
2018-06-09T01:22:16.489Z,66.72
2018-06-09T01:24:47.185Z,67.05
2018-06-09T01:27:17.885Z,68.24
2018-06-09T01:29:48.554Z,68.28
2018-06-09T01:32:19.369Z,68.91
2018-06-09T01:34:50.023Z,67.70
2018-06-09T01:37:20.869Z,68.43
2018-06-09T01:39:51.577Z,68.67
2018-06-09T01:42:22.695Z,67.46
2018-06-09T01:44:53.366Z,67.89
2018-06-09T01:47:23.982Z,67.40
2018-06-09T01:49:54.678Z,68.23
2018-06-09T01:52:25.774Z,67.85
2018-06-09T01:54:56.385Z,69.33
2018-06-09T01:57:27.329Z,70.13
2018-06-09T01:59:57.965Z,69.02
2018-06-09T02:02:28.545Z,68.97
2018-06-09T02:04:59.241Z,68.60
2018-06-09T02:07:30.065Z,68.75
2018-06-09T02:10:00.793Z,68.69
2018-06-09T02:12:31.620Z,68.35
2018-06-09T02:15:02.255Z,68.28
2018-06-09T02:17:33.322Z,68.29
2018-06-09T02:20:04.198Z,68.32
2018-06-09T02:22:34.985Z,68.79
2018-06-09T02:25:05.614Z,68.41
2018-06-09T02:27:36.409Z,68.29
2018-06-09T02:30:07.063Z,69.11
2018-06-09T02:32:37.893Z,69.87
2018-06-09T02:35:08.594Z,70.41
2018-06-09T02:37:39.522Z,70.48
2018-06-09T02:40:10.146Z,70.01
2018-06-09T02:42:40.805Z,69.13
2018-06-09T02:45:11.473Z,68.88
2018-06-09T02:47:42.299Z,69.33
2018-06-09T02:50:13.049Z,70.05
2018-06-09T02:52:43.728Z,69.34
2018-06-09T02:55:14.555Z,70.25
2018-06-09T02:57:45.529Z,69.63
2018-06-09T03:00:16.170Z,69.67
2018-06-09T03:02:46.864Z,68.95
2018-06-09T03:05:17.582Z,68.75
2018-06-09T03:07:48.387Z,68.91
2018-06-09T03:10:19.033Z,69.25
2018-06-09T03:12:49.765Z,70.08
2018-06-09T03:15:20.373Z,69.87
2018-06-09T03:17:56.613Z,68.78
2018-06-09T03:20:27.206Z,68.78
2018-06-09T03:22:57.897Z,68.93
2018-06-09T03:25:28.633Z,68.07
2018-06-09T03:27:59.461Z,67.97
2018-06-09T03:30:30.174Z,66.71
2018-06-09T03:33:00.877Z,68.21
2018-06-09T03:35:31.569Z,67.86
2018-06-09T03:38:02.270Z,68.67
2018-06-09T03:40:32.953Z,68.19
2018-06-09T03:43:11.067Z,68.51
2018-06-09T03:45:42.806Z,67.87
2018-06-09T03:48:13.699Z,66.54
2018-06-09T03:50:44.532Z,67.73
2018-06-09T03:53:15.403Z,67.60
2018-06-09T03:55:46.098Z,67.97
2018-06-09T03:58:16.769Z,68.56
2018-06-09T04:00:47.545Z,68.63
2018-06-09T04:03:18.393Z,70.47
2018-06-09T04:05:49.077Z,70.51
2018-06-09T04:08:19.819Z,69.65
2018-06-09T04:10:50.553Z,69.88
2018-06-09T04:13:21.345Z,69.43
2018-06-09T04:15:52.086Z,70.17
2018-06-09T04:18:22.924Z,70.54
2018-06-09T04:20:53.592Z,70.04
2018-06-09T04:23:24.457Z,70.51
2018-06-09T04:25:55.162Z,69.17
2018-06-09T04:28:25.763Z,68.06
2018-06-09T04:30:56.491Z,67.58
2018-06-09T04:33:27.186Z,69.00
2018-06-09T04:35:57.990Z,68.85
2018-06-09T04:38:28.713Z,68.36
2018-06-09T04:40:58.985Z,69.13
2018-06-09T04:43:29.619Z,69.04
2018-06-09T04:46:00.318Z,68.64
2018-06-09T04:48:31.081Z,68.08
2018-06-09T04:51:01.826Z,66.09
2018-06-09T04:53:32.689Z,67.53
2018-06-09T04:56:03.142Z,65.16
2018-06-09T04:58:33.420Z,61.76
2018-06-09T05:01:03.781Z,62.48
2018-06-09T05:03:34.042Z,63.46
2018-06-09T05:06:05.105Z,61.18
2018-06-09T05:08:35.786Z,60.45
2018-06-09T05:11:06.536Z,59.60
2018-06-09T05:13:37.513Z,59.01
2018-06-09T05:16:08.195Z,60.89
2018-06-09T05:18:42.733Z,59.49
2018-06-09T05:21:13.537Z,58.83
2018-06-09T05:23:44.193Z,59.20
2018-06-09T05:26:14.839Z,57.97
2018-06-09T05:28:45.214Z,58.00
2018-06-09T05:31:16.117Z,57.60
2018-06-09T05:33:46.377Z,58.08
2018-06-09T05:36:17.181Z,56.02
2018-06-09T05:38:47.518Z,55.72
2018-06-09T05:41:17.941Z,54.58
2018-06-09T05:43:48.596Z,55.19
2018-06-09T05:46:20.109Z,54.28
2018-06-09T05:48:50.450Z,55.29
2018-06-09T05:51:21.090Z,55.30
2018-06-09T05:53:51.681Z,56.65
2018-06-09T05:56:22.284Z,56.44
2018-06-09T05:58:52.924Z,53.79
2018-06-09T06:01:23.874Z,52.51
2018-06-09T06:03:54.287Z,54.10
2018-06-09T06:06:25.003Z,55.63
2018-06-09T06:08:55.474Z,54.15
2018-06-09T06:11:26.062Z,55.22
2018-06-09T06:13:56.403Z,55.68
2018-06-09T06:16:27.014Z,54.98
2018-06-09T06:18:57.331Z,57.23
2018-06-09T06:21:27.820Z,56.46
2018-06-09T06:23:57.696Z,54.63
2018-06-09T06:26:28.305Z,52.42
2018-06-09T06:28:58.586Z,52.45
2018-06-09T06:31:29.109Z,54.08
2018-06-09T06:33:59.890Z,54.82
2018-06-09T06:36:30.437Z,53.20
2018-06-09T06:39:00.717Z,54.21
2018-06-09T06:41:31.090Z,54.17
2018-06-09T06:44:01.543Z,52.64
2018-06-09T06:46:32.147Z,55.58
2018-06-09T06:49:02.816Z,53.88
2018-06-09T06:51:33.077Z,53.79
2018-06-09T06:54:03.706Z,53.68
2018-06-09T06:56:34.007Z,53.48
2018-06-09T06:59:04.342Z,53.20
2018-06-09T07:01:34.814Z,51.12
2018-06-09T07:04:05.158Z,52.91
2018-06-09T07:06:35.901Z,51.40
2018-06-09T07:09:09.026Z,50.64
2018-06-09T07:11:39.721Z,52.94
2018-06-09T07:14:09.999Z,54.37
2018-06-09T07:16:40.317Z,53.23
2018-06-09T07:19:10.887Z,54.60
2018-06-09T07:21:41.173Z,53.52
2018-06-09T07:24:11.538Z,51.91
2018-06-09T07:26:41.829Z,50.12
2018-06-09T07:29:12.298Z,50.17
2018-06-09T07:31:42.591Z,49.05
2018-06-09T07:34:12.959Z,48.81
2018-06-09T07:36:43.314Z,48.22
2018-06-09T07:39:13.692Z,47.49
2018-06-09T07:41:44.012Z,48.28
2018-06-09T07:44:14.598Z,46.92
2018-06-09T07:46:45.166Z,48.89
2018-06-09T07:49:15.589Z,47.71
2018-06-09T07:51:45.910Z,49.28
2018-06-09T07:54:16.186Z,46.95
2018-06-09T07:56:46.933Z,49.58
2018-06-09T07:59:17.638Z,49.93
2018-06-09T08:01:48.076Z,48.92
2018-06-09T08:04:18.337Z,47.74
2018-06-09T08:06:48.679Z,48.19
2018-06-09T08:09:19.018Z,48.94
2018-06-09T08:11:49.408Z,49.27
2018-06-09T08:14:19.700Z,48.83
2018-06-09T08:16:49.994Z,48.49
2018-06-09T08:19:20.763Z,48.35
2018-06-09T08:21:51.249Z,48.57
2018-06-09T08:24:21.581Z,46.05
2018-06-09T08:26:51.861Z,45.44
2018-06-09T08:29:22.137Z,44.60
2018-06-09T08:31:52.653Z,43.13
2018-06-09T08:34:22.962Z,45.18
2018-06-09T08:36:53.744Z,45.25
2018-06-09T08:39:24.553Z,43.63
2018-06-09T08:41:55.319Z,42.22
2018-06-09T08:44:25.665Z,42.59
2018-06-09T08:46:56.010Z,43.52
2018-06-09T08:49:26.573Z,41.33
2018-06-09T08:51:57.050Z,40.56
2018-06-09T08:54:27.379Z,40.31
2018-06-09T08:56:57.719Z,39.83
2018-06-09T08:59:28.318Z,40.45
2018-06-09T09:01:58.869Z,39.49
2018-06-09T09:04:29.203Z,42.58
2018-06-09T09:06:59.522Z,40.87
2018-06-09T09:09:30.381Z,39.50
2018-06-09T09:12:00.665Z,38.46
2018-06-09T09:14:30.934Z,39.50
2018-06-09T09:17:01.646Z,39.09
2018-06-09T09:19:31.921Z,39.35
2018-06-09T09:22:02.531Z,40.02
2018-06-09T09:24:33.274Z,39.87
2018-06-09T09:27:03.885Z,38.88
2018-06-09T09:29:34.156Z,38.58
2018-06-09T09:32:05.627Z,37.66
2018-06-09T09:34:35.962Z,38.75
2018-06-09T09:37:06.305Z,39.07
2018-06-09T09:39:36.583Z,37.07
2018-06-09T09:42:06.941Z,37.13
2018-06-09T09:44:37.258Z,35.38
2018-06-09T09:47:08.163Z,34.98
2018-06-09T09:49:39.078Z,35.14
2018-06-09T09:52:09.421Z,37.73
2018-06-09T09:54:41.122Z,38.37
2018-06-09T09:57:11.522Z,37.36
2018-06-09T09:59:41.801Z,36.86
2018-06-09T10:02:12.194Z,35.97
2018-06-09T10:04:42.548Z,35.56
2018-06-09T10:07:12.869Z,33.46
2018-06-09T10:09:43.232Z,34.36
2018-06-09T10:12:13.625Z,34.47
2018-06-09T10:14:43.978Z,33.07
2018-06-09T10:17:14.471Z,35.31
2018-06-09T10:19:44.782Z,34.30
2018-06-09T10:22:15.274Z,33.99
2018-06-09T10:24:45.650Z,34.58
2018-06-09T10:27:16.366Z,34.24
2018-06-09T10:29:46.661Z,34.50
2018-06-09T10:32:17.664Z,31.85
2018-06-09T10:34:47.958Z,31.29
2018-06-09T10:37:18.406Z,34.74
2018-06-09T10:39:48.731Z,30.46
2018-06-09T10:42:19.113Z,29.38
2018-06-09T10:44:49.909Z,31.15
2018-06-09T10:47:21.014Z,32.42
2018-06-09T10:49:51.689Z,29.12
2018-06-09T10:52:22.527Z,29.16
2018-06-09T10:54:53.271Z,27.63
2018-06-09T10:57:24.083Z,27.19
2018-06-09T10:59:54.742Z,27.92
2018-06-09T11:02:25.626Z,27.08
2018-06-09T11:04:55.933Z,28.31
2018-06-09T11:07:26.423Z,27.06
2018-06-09T11:09:56.721Z,27.20
2018-06-09T11:12:27.470Z,29.55
2018-06-09T11:14:58.210Z,27.95
2018-06-09T11:17:28.994Z,27.01
2018-06-09T11:19:59.514Z,28.71
2018-06-09T11:22:30.446Z,27.99
2018-06-09T11:25:00.758Z,26.87
2018-06-09T11:27:31.141Z,25.69
2018-06-09T11:30:01.488Z,28.86
2018-06-09T11:32:31.796Z,29.24
2018-06-09T11:35:02.133Z,29.74
2018-06-09T11:37:32.769Z,28.93
2018-06-09T11:40:03.166Z,30.74
2018-06-09T11:42:33.595Z,25.58
2018-06-09T11:45:04.387Z,26.69
2018-06-09T11:47:34.686Z,26.84
2018-06-09T11:50:05.102Z,25.36
2018-06-09T11:52:35.394Z,25.10
2018-06-09T11:55:05.699Z,26.82
2018-06-09T11:57:36.040Z,26.54
2018-06-09T12:00:06.354Z,26.03
2018-06-09T12:02:36.810Z,26.53
2018-06-09T12:05:07.207Z,26.59
2018-06-09T12:07:37.813Z,28.40
2018-06-09T12:10:08.509Z,26.77
2018-06-09T12:12:38.940Z,26.64
2018-06-09T12:15:09.256Z,26.71
2018-06-09T12:17:40.082Z,26.16
2018-06-09T12:20:10.770Z,27.72
2018-06-09T12:22:41.329Z,27.82
2018-06-09T12:25:11.913Z,28.37
2018-06-09T12:27:42.267Z,28.61
2018-06-09T12:30:12.945Z,28.37
2018-06-09T12:32:43.722Z,29.13
2018-06-09T12:35:14.358Z,27.05
2018-06-09T12:37:45.233Z,27.72
2018-06-09T12:40:16.026Z,28.33
2018-06-09T12:42:46.757Z,29.04
2018-06-09T12:45:17.449Z,27.26
2018-06-09T12:47:48.530Z,26.47
2018-06-09T12:50:18.883Z,26.77
2018-06-09T12:52:49.837Z,27.61
2018-06-09T12:55:20.482Z,27.03
2018-06-09T12:57:51.354Z,27.08
2018-06-09T13:00:22.108Z,26.91
2018-06-09T13:02:52.765Z,26.93
2018-06-09T13:05:23.054Z,24.73
2018-06-09T13:07:54.046Z,24.87
2018-06-09T13:10:24.838Z,24.51
2018-06-09T13:12:55.559Z,24.98
2018-06-09T13:15:26.347Z,24.37
2018-06-09T13:17:57.215Z,24.46
2018-06-09T13:20:27.973Z,25.64
2018-06-09T13:22:58.705Z,25.71
2018-06-09T13:25:29.390Z,25.69
2018-06-09T13:27:59.722Z,26.28
2018-06-09T13:30:30.007Z,25.00
2018-06-09T13:33:00.701Z,27.75
2018-06-09T13:35:31.386Z,28.54
2018-06-09T13:38:02.189Z,29.85
2018-06-09T13:40:32.952Z,28.93
2018-06-09T13:43:04.206Z,28.24
2018-06-09T13:45:34.453Z,28.66
2018-06-09T13:48:04.970Z,28.82
2018-06-09T13:50:35.282Z,28.65
2018-06-09T13:53:05.849Z,28.29
2018-06-09T13:55:36.150Z,27.83
2018-06-09T13:58:06.525Z,28.08
2018-06-09T14:00:36.821Z,28.05
2018-06-09T14:03:07.309Z,28.04
2018-06-09T14:05:37.602Z,28.55
2018-06-09T14:08:08.154Z,28.96
2018-06-09T14:10:38.452Z,30.20
2018-06-09T14:13:08.897Z,29.49
2018-06-09T14:15:39.199Z,29.41
2018-06-09T14:18:09.497Z,29.71
2018-06-09T14:20:39.861Z,28.98
2018-06-09T14:23:10.202Z,29.41
2018-06-09T14:25:40.555Z,30.23
2018-06-09T14:28:10.866Z,29.70
2018-06-09T14:30:42.818Z,30.36
2018-06-09T14:33:13.430Z,29.89
2018-06-09T14:35:43.817Z,31.39
2018-06-09T14:38:14.129Z,30.20
2018-06-09T14:40:44.548Z,30.98
2018-06-09T14:43:14.849Z,31.99
2018-06-09T14:45:46.516Z,31.30
2018-06-09T14:48:16.869Z,31.36
2018-06-09T14:50:47.285Z,32.49
2018-06-09T14:53:17.597Z,31.54
2018-06-09T14:55:48.142Z,31.43
2018-06-09T14:58:18.501Z,31.72
2018-06-09T15:00:49.110Z,30.43
2018-06-09T15:03:19.417Z,31.00
2018-06-09T15:05:49.373Z,31.91
2018-06-09T15:08:20.517Z,32.55
2018-06-09T15:10:51.217Z,32.01
2018-06-09T15:13:21.554Z,32.70
2018-06-09T15:15:52.005Z,31.88
2018-06-09T15:18:22.309Z,32.48
2018-06-09T15:20:52.733Z,32.67
2018-06-09T15:23:23.014Z,32.92
2018-06-09T15:25:53.394Z,33.84
2018-06-09T15:28:23.798Z,33.13
2018-06-09T15:30:54.246Z,33.39
2018-06-09T15:33:24.746Z,32.32
2018-06-09T15:35:55.057Z,31.79
2018-06-09T15:38:25.362Z,31.96
2018-06-09T15:40:55.834Z,32.83
2018-06-09T15:43:26.129Z,32.96
2018-06-09T15:45:56.423Z,33.17
2018-06-09T15:48:26.989Z,33.89
2018-06-09T15:50:57.312Z,33.09
2018-06-09T15:53:27.640Z,33.53
2018-06-09T15:55:57.962Z,33.96
2018-06-09T15:58:28.261Z,33.76
2018-06-09T16:00:58.570Z,33.55
2018-06-09T16:03:28.833Z,33.68
2018-06-09T16:05:59.220Z,34.09
2018-06-09T16:08:29.493Z,34.21
2018-06-09T16:10:59.875Z,34.11
2018-06-09T16:13:30.150Z,33.81
2018-06-09T16:16:00.594Z,33.79
2018-06-09T16:18:30.885Z,33.84
2018-06-09T16:21:00.712Z,33.73
2018-06-09T16:23:31.269Z,34.47
2018-06-09T16:26:01.539Z,34.26
2018-06-09T16:28:31.994Z,33.64
2018-06-09T16:31:02.339Z,34.27
2018-06-09T16:33:32.884Z,33.89
2018-06-09T16:36:03.162Z,34.13
2018-06-09T16:38:33.706Z,34.49
2018-06-09T16:41:03.999Z,34.69
2018-06-09T16:43:34.437Z,35.30
2018-06-09T16:46:04.768Z,35.42
2018-06-09T16:48:35.154Z,36.21
2018-06-09T16:51:05.486Z,36.75
2018-06-09T16:53:36.025Z,36.33
2018-06-09T16:56:06.415Z,37.00
2018-06-09T16:58:36.986Z,37.14
2018-06-09T17:01:07.358Z,37.15
2018-06-09T17:03:37.725Z,37.08
2018-06-09T17:06:08.019Z,37.61
2018-06-09T17:08:38.298Z,37.69
2018-06-09T17:11:09.013Z,37.58
2018-06-09T17:13:39.321Z,37.10
2018-06-09T17:16:09.703Z,36.90
2018-06-09T17:18:40.091Z,37.29
2018-06-09T17:21:10.417Z,37.30
2018-06-09T17:23:40.746Z,37.81
2018-06-09T17:26:11.042Z,38.18
2018-06-09T17:28:41.686Z,38.40
2018-06-09T17:31:11.967Z,38.54
2018-06-09T17:33:42.738Z,38.90
2018-06-09T17:36:13.010Z,39.16
2018-06-09T17:38:43.406Z,38.88
2018-06-09T17:41:13.682Z,38.76
2018-06-09T17:43:44.054Z,39.39
2018-06-09T17:46:14.401Z,40.32
2018-06-09T17:48:44.897Z,39.86
2018-06-09T17:51:15.219Z,40.66
2018-06-09T17:53:45.541Z,41.34
2018-06-09T17:56:15.823Z,41.81
2018-06-09T17:58:46.146Z,41.65
2018-06-09T18:01:16.494Z,42.14
2018-06-09T18:03:46.773Z,42.62
2018-06-09T18:06:17.142Z,41.82
2018-06-09T18:08:47.834Z,42.50
2018-06-09T18:11:18.117Z,42.46
2018-06-09T18:13:48.515Z,41.84
2018-06-09T18:16:18.802Z,41.88
2018-06-09T18:18:49.221Z,41.85
2018-06-09T18:21:19.671Z,42.40
2018-06-09T18:23:50.337Z,42.57
2018-06-09T18:26:20.658Z,42.69
2018-06-09T18:28:51.793Z,43.65
2018-06-09T18:31:22.053Z,43.47
2018-06-09T18:33:52.622Z,42.89
2018-06-09T18:36:22.942Z,43.17
2018-06-09T18:38:53.318Z,42.97
2018-06-09T18:41:23.148Z,42.50
2018-06-09T18:43:53.756Z,42.89
2018-06-09T18:46:23.994Z,43.17
2018-06-09T18:48:54.559Z,42.34
2018-06-09T18:51:24.912Z,42.82
2018-06-09T18:53:55.217Z,42.87
2018-06-09T18:56:25.682Z,42.94
2018-06-09T18:58:55.971Z,41.90
2018-06-09T19:01:26.365Z,42.09
2018-06-09T19:03:56.715Z,41.79
2018-06-09T19:06:27.434Z,42.04
2018-06-09T19:08:57.727Z,41.96
2018-06-09T19:11:27.556Z,41.58
2018-06-09T19:13:58.021Z,41.96
2018-06-09T19:16:28.382Z,42.22
2018-06-09T19:19:00.927Z,43.92
2018-06-09T19:21:31.222Z,45.38
2018-06-09T19:24:01.749Z,47.07
2018-06-09T19:26:32.035Z,46.56
2018-06-09T19:29:02.391Z,46.50
2018-06-09T19:31:32.729Z,46.23
2018-06-09T19:34:03.174Z,46.18
2018-06-09T19:36:33.458Z,46.68
2018-06-09T19:39:04.063Z,48.56
2018-06-09T19:41:34.511Z,51.08
2018-06-09T19:44:04.736Z,52.61
2018-06-09T19:46:35.703Z,51.84
2018-06-09T19:49:06.046Z,52.02
2018-06-09T19:51:36.370Z,51.84
2018-06-09T19:54:06.809Z,52.91
2018-06-09T19:56:37.088Z,52.66
2018-06-09T19:59:07.778Z,53.12
2018-06-09T20:01:38.110Z,54.48
2018-06-09T20:04:08.474Z,52.39
2018-06-09T20:06:39.276Z,51.47
2018-06-09T20:09:10.833Z,50.94
2018-06-09T20:11:41.218Z,51.36
2018-06-09T20:14:11.811Z,51.27
2018-06-09T20:16:42.163Z,51.41
2018-06-09T20:19:12.595Z,51.39
2018-06-09T20:21:42.897Z,51.28
2018-06-09T20:24:13.231Z,51.52
2018-06-09T20:26:43.642Z,53.01
2018-06-09T20:29:14.019Z,57.52
2018-06-09T20:31:44.509Z,58.60
2018-06-09T20:34:15.017Z,60.42
2018-06-09T20:36:45.798Z,61.11
2018-06-09T20:39:16.074Z,61.65
2018-06-09T20:41:47.389Z,60.13
2018-06-09T20:44:17.763Z,62.08
2018-06-09T20:46:48.149Z,62.16
2018-06-09T20:49:18.550Z,62.53
2018-06-09T20:51:48.920Z,61.76
2018-06-09T20:54:19.487Z,62.04
2018-06-09T20:56:49.830Z,63.03
2018-06-09T20:59:20.393Z,63.07
2018-06-09T21:01:50.723Z,62.72
2018-06-09T21:04:21.001Z,62.44
2018-06-09T21:06:51.603Z,63.36
2018-06-09T21:09:21.882Z,65.32
2018-06-09T21:11:52.381Z,64.75
2018-06-09T21:14:22.713Z,64.21
2018-06-09T21:16:53.234Z,65.03
2018-06-09T21:19:23.493Z,63.79
2018-06-09T21:21:53.798Z,64.69
2018-06-09T21:24:24.142Z,64.49
2018-06-09T21:26:59.575Z,63.91
2018-06-09T21:29:38.834Z,63.65
2018-06-09T21:32:09.801Z,63.74
2018-06-09T21:35:01.921Z,63.90
2018-06-09T21:37:42.653Z,63.71
2018-06-09T21:40:32.844Z,64.07
2018-06-09T21:43:08.234Z,64.11
2018-06-09T21:45:43.502Z,64.03
2018-06-09T21:48:13.983Z,63.99
2018-06-09T21:50:44.309Z,66.04
2018-06-09T21:53:14.666Z,65.41
2018-06-09T21:55:45.008Z,66.18
2018-06-09T21:58:15.766Z,66.34
2018-06-09T22:00:46.477Z,66.43
2018-06-09T22:03:17.083Z,66.12
2018-06-09T22:05:47.462Z,65.78
2018-06-09T22:08:17.782Z,65.76
2018-06-09T22:10:48.573Z,65.80
2018-06-09T22:13:19.265Z,65.72
2018-06-09T22:15:49.577Z,65.71
2018-06-09T22:18:20.230Z,64.80
2018-06-09T22:20:50.958Z,65.23
2018-06-09T22:23:21.546Z,64.62
2018-06-09T22:25:56.926Z,65.02
2018-06-09T22:28:27.669Z,64.10
2018-06-09T22:30:58.359Z,64.48
2018-06-09T22:33:29.086Z,64.78
2018-06-09T22:35:59.341Z,64.90
2018-06-09T22:38:29.990Z,64.56
2018-06-09T22:41:00.837Z,63.94
2018-06-09T22:43:31.092Z,63.75
2018-06-09T22:46:01.565Z,63.60
2018-06-09T22:48:31.858Z,62.56
2018-06-09T22:51:02.423Z,62.39
2018-06-09T22:53:32.699Z,63.19
2018-06-09T22:56:03.246Z,62.97
2018-06-09T22:58:33.594Z,62.94
2018-06-09T23:01:03.905Z,63.22
2018-06-09T23:03:34.230Z,63.34
2018-06-09T23:06:04.530Z,61.80
2018-06-09T23:08:34.797Z,62.03
2018-06-09T23:11:05.304Z,62.60
2018-06-09T23:13:35.585Z,62.51
2018-06-09T23:16:06.214Z,62.91
2018-06-09T23:18:36.485Z,61.96
2018-06-09T23:21:06.770Z,62.56
2018-06-09T23:23:37.285Z,62.57
2018-06-09T23:26:07.606Z,62.90
2018-06-09T23:28:37.926Z,62.94
2018-06-09T23:31:08.191Z,61.73
2018-06-09T23:33:38.675Z,62.11
2018-06-09T23:36:08.998Z,61.72
2018-06-09T23:38:39.357Z,62.29
2018-06-09T23:41:09.674Z,63.14
2018-06-09T23:43:40.166Z,64.08
2018-06-09T23:46:10.440Z,64.46
2018-06-09T23:48:41.086Z,63.42
2018-06-09T23:51:11.357Z,64.36
2018-06-09T23:53:41.689Z,63.75
2018-06-09T23:56:12.051Z,62.38
2018-06-09T23:58:42.645Z,63.38
